Harford, Pennsylvania
Current Conditions -  °F | °C
As of 3:54 AM on Tuesday 21 Oct 2014 (Local Time) from KAVP Reporting Station
Overcast Overcast  
Wind Chill: 53°   Ceiling: 11000
Heat Index: 53°   Visibility: 10mi
Dew Point: 45°   Wind: 5mph
Humidity: 74%   Direction: 260°W
Pressure: 29.86"   Gusts: NA
Location:  41.78°N, 75.7°W
Report Text: KAVP 210754Z AUTO 26004KT 10SM FEW065 FEW080 OVC110 12/07 A2986 RMK AO2 RAB02E47 SLP109 P0000 T01170072
Loading
Personal Weather Stations






























Interactive Weather Map
Tropical Storm Tracking
New forecast layout! Learn more

10-Day Weather Forecast

Advertisements
Track Severe Weather on mobile